sensor_id;sensor_type;location;lat;lon;timestamp;pressure;altitude;pressure_sealevel;temperature;humidity
17950;BME280;9100;48.700;9.316;2023-04-01T00:00:08;96415.8;;;9.41;100
17950;BME280;9100;48.700;9.316;2023-04-01T00:01:09;96412.2;;;9.42;100
17950;BME280;9100;48.700;9.316;2023-04-01T00:02:08;96409.1;;;9.4;100
17950;BME280;9100;48.700;9.316;2023-04-01T00:03:08;96415.8;;;9.41;100
17950;BME280;9100;48.700;9.316;2023-04-01T00:04:08;96410.7;;;9.41;100
17950;BME280;9100;48.700;9.316;2023-04-01T00:04:38;96364.5;;;9.11;100
17950;BME280;9100;48.700;9.316;2023-04-01T00:05:08;96412.7;;;9.39;100
17950;BME280;9100;48.700;9.316;2023-04-01T00:06:09;96404;;;9.4;100
17950;BME280;9100;48.700;9.316;2023-04-01T00:07:08;96409.1;;;9.4;100
17950;BME280;9100;48.700;9.316;2023-04-01T00:08:08;96414.20000000001;;;9.4;100
17950;BME280;9100;48.700;9.316;2023-04-01T00:09:08;96408.2;;;9.41;100
17950;BME280;9100;48.700;9.316;2023-04-01T00:09:38;96405;;;9.39;100
17950;BME280;9100;48.700;9.316;2023-04-01T00:10:09;96401.5;;;9.4;100
17950;BME280;9100;48.700;9.316;2023-04-01T00:11:08;96404;;;9.4;100
17950;BME280;9100;48.700;9.316;2023-04-01T00:12:08;96401.5;;;9.4;100
17950;BME280;9100;48.700;9.316;2023-04-01T00:13:08;96404;;;9.4;100
17950;BME280;9100;48.700;9.316;2023-04-01T00:14:08;96409.90000000001;;;9.41;100
17950;BME280;9100;48.700;9.316;2023-04-01T00:14:38;96408.2;;;9.41;100
17950;BME280;9100;48.700;9.316;2023-04-01T00:15:09;96420.9;;;9.41;100
17950;BME280;9100;48.700;9.316;2023-04-01T00:16:08;96411.3;;;9.43;100
17950;BME280;9100;48.700;9.316;2023-04-01T00:17:08;96408.5;;;9.45;100
17950;BME280;9100;48.700;9.316;2023-04-01T00:18:08;96395;;;9.44;100
17950;BME280;9100;48.700;9.316;2023-04-01T00:19:08;96390.3;;;9.41;100
17950;BME280;9100;48.700;9.316;2023-04-01T00:19:38;96401.3;;;9.42;100
17950;BME280;9100;48.700;9.316;2023-04-01T00:20:08;96397.2;;;9.41;100
17950;BME280;9100;48.700;9.316;2023-04-01T00:21:08;96401.3;;;9.42;100
17950;BME280;9100;48.700;9.316;2023-04-01T00:22:08;96401.5;;;9.4;100
17950;BME280;9100;48.700;9.316;2023-04-01T00:23:08;96409.90000000001;;;9.41;100
17950;BME280;9100;48.700;9.316;2023-04-01T00:24:08;96405.8;;;9.4;100
17950;BME280;9100;48.700;9.316;2023-04-01T00:24:38;96404.4;;;9.37;100
17950;BME280;9100;48.700;9.316;2023-04-01T00:25:08;96401.9;;;9.37;100
17950;BME280;9100;48.700;9.316;2023-04-01T00:26:08;96407.8;;;9.38;100
17950;BME280;9100;48.700;9.316;2023-04-01T00:27:08;96397.6;;;9.38;100
17950;BME280;9100;48.700;9.316;2023-04-01T00:28:08;96398.5;;;9.37;100
17950;BME280;9100;48.700;9.316;2023-04-01T00:29:08;96400.5;;;9.35;100
17950;BME280;9100;48.700;9.316;2023-04-01T00:29:41;96399;;;9.34;100
17950;BME280;9100;48.700;9.316;2023-04-01T00:30:08;96401.3;;;9.35;100
17950;BME280;9100;48.700;9.316;2023-04-01T00:31:09;96397.2;;;9.34;100
17950;BME280;9100;48.700;9.316;2023-04-01T00:32:08;96398.7;;;9.35;100
17950;BME280;9100;48.700;9.316;2023-04-01T00:33:08;96403.8;;;9.35;100
17950;BME280;9100;48.700;9.316;2023-04-01T00:34:08;96404.8;;;9.34;100
17950;BME280;9100;48.700;9.316;2023-04-01T00:34:38;96399.7;;;9.34;100
17950;BME280;9100;48.700;9.316;2023-04-01T00:35:08;96394.6;;;9.34;100
17950;BME280;9100;48.700;9.316;2023-04-01T00:36:09;96399.7;;;9.34;100
17950;BME280;9100;48.700;9.316;2023-04-01T00:37:08;96403.3;;;9.33;100
17950;BME280;9100;48.700;9.316;2023-04-01T00:38:08;96398.2;;;9.33;100
17950;BME280;9100;48.700;9.316;2023-04-01T00:39:08;96398.2;;;9.33;100
17950;BME280;9100;48.700;9.316;2023-04-01T00:39:38;96403.5;;;9.32;100
17950;BME280;9100;48.700;9.316;2023-04-01T00:40:11;96401.70000000001;;;9.32;100
17950;BME280;9100;48.700;9.316;2023-04-01T00:41:08;96402.5;;;9.33;100
17950;BME280;9100;48.700;9.316;2023-04-01T00:42:09;96400.5;;;9.35;100
17950;BME280;9100;48.700;9.316;2023-04-01T00:43:10;96399.7;;;9.34;100
17950;BME280;9100;48.700;9.316;2023-04-01T00:44:14;96398.7;;;9.35;100
17950;BME280;9100;48.700;9.316;2023-04-01T00:44:38;96408.2;;;9.35;100
17950;BME280;9100;48.700;9.316;2023-04-01T00:45:25;96400.3;;;9.36;100
17950;BME280;9100;48.700;9.316;2023-04-01T00:46:08;96403.09999999999;;;9.35;100
17950;BME280;9100;48.700;9.316;2023-04-01T00:47:08;96405.8;;;9.33;100
17950;BME280;9100;48.700;9.316;2023-04-01T00:48:09;96404.1;;;9.34;100
17950;BME280;9100;48.700;9.316;2023-04-01T00:49:08;96404.8;;;9.34;100
17950;BME280;9100;48.700;9.316;2023-04-01T00:49:39;96409.2;;;9.34;100
17950;BME280;9100;48.700;9.316;2023-04-01T00:50:08;96410.7;;;9.35;100
17950;BME280;9100;48.700;9.316;2023-04-01T00:51:09;96410;;;9.34;100
17950;BME280;9100;48.700;9.316;2023-04-01T00:52:08;96415;;;9.34;100
17950;BME280;9100;48.700;9.316;2023-04-01T00:53:08;96412.3;;;9.36;100
17950;BME280;9100;48.700;9.316;2023-04-01T00:54:08;96411.5;;;9.35;100
17950;BME280;9100;48.700;9.316;2023-04-01T00:54:38;96416.6;;;9.35;100
17950;BME280;9100;48.700;9.316;2023-04-01T00:55:08;96414.59999999999;;;9.37;100
17950;BME280;9100;48.700;9.316;2023-04-01T00:56:10;96416.2;;;9.38;100
17950;BME280;9100;48.700;9.316;2023-04-01T00:57:09;96419.5;;;9.39;100
17950;BME280;9100;48.700;9.316;2023-04-01T00:58:09;96413.9;;;9.37;100
17950;BME280;9100;48.700;9.316;2023-04-01T00:59:10;96414;;;9.35;100
17950;BME280;9100;48.700;9.316;2023-04-01T00:59:39;96423.5;;;9.35;100
17950;BME280;9100;48.700;9.316;2023-04-01T01:00:09;96416.6;;;9.35;100
17950;BME280;9100;48.700;9.316;2023-04-01T01:01:08;96416.2;;;9.38;100
17950;BME280;9100;48.700;9.316;2023-04-01T01:02:09;96422.90000000001;;;9.39;100
17950;BME280;9100;48.700;9.316;2023-04-01T01:03:08;96415.20000000001;;;9.39;100
17950;BME280;9100;48.700;9.316;2023-04-01T01:04:19;96420.1;;;9.41;100
17950;BME280;9100;48.700;9.316;2023-04-01T01:04:39;96419.3;;;9.4;100
17950;BME280;9100;48.700;9.316;2023-04-01T01:05:08;96426;;;9.41;100
17950;BME280;9100;48.700;9.316;2023-04-01T01:06:10;96419.7;;;9.44;100
17950;BME280;9100;48.700;9.316;2023-04-01T01:07:12;96416.4;;;9.43;100
17950;BME280;9100;48.700;9.316;2023-04-01T01:08:09;96416.8;;;9.4;100
17950;BME280;9100;48.700;9.316;2023-04-01T01:09:12;96412.7;;;9.39;100
17950;BME280;9100;48.700;9.316;2023-04-01T01:09:41;96411.90000000001;;;9.39;100
17950;BME280;9100;48.700;9.316;2023-04-01T01:10:09;96412.09999999999;;;9.37;100
17950;BME280;9100;48.700;9.316;2023-04-01T01:11:08;96416.4;;;9.37;100
17950;BME280;9100;48.700;9.316;2023-04-01T01:12:10;96418.2;;;9.36;100
17950;BME280;9100;48.700;9.316;2023-04-01T01:13:10;96420.2;;;9.34;100
17950;BME280;9100;48.700;9.316;2023-04-01T01:14:10;96403.8;;;9.35;100
17950;BME280;9100;48.700;9.316;2023-04-01T01:14:42;96410;;;9.34;100
17950;BME280;9100;48.700;9.316;2023-04-01T01:15:10;96363.7;;;9.04;100
17950;BME280;9100;48.700;9.316;2023-04-01T01:16:09;96413.09999999999;;;9.36;100
17950;BME280;9100;48.700;9.316;2023-04-01T01:17:10;96409.5;;;9.37;100
17950;BME280;9100;48.700;9.316;2023-04-01T01:18:09;96414;;;9.35;100
17950;BME280;9100;48.700;9.316;2023-04-01T01:19:08;96413.5;;;9.33;100
17950;BME280;9100;48.700;9.316;2023-04-01T01:19:44;96410.90000000001;;;9.33;100
17950;BME280;9100;48.700;9.316;2023-04-01T01:20:24;96408.4;;;9.33;100
17950;BME280;9100;48.700;9.316;2023-04-01T01:21:15;96406.8;;;9.32;100
17950;BME280;9100;48.700;9.316;2023-04-01T01:22:11;96408.8;;;9.3;100
17950;BME280;9100;48.700;9.316;2023-04-01T01:23:14;96412.3;;;9.29;100
17950;BME280;9100;48.700;9.316;2023-04-01T01:24:11;96406.4;;;9.29;100
17950;BME280;9100;48.700;9.316;2023-04-01T01:24:55;96413.3;;;9.28;100
17950;BME280;9100;48.700;9.316;2023-04-01T01:25:11;96409.2;;;9.27;100
17950;BME280;9100;48.700;9.316;2023-04-01T01:26:13;96415;;;9.28;100
17950;BME280;9100;48.700;9.316;2023-04-01T01:27:08;96409.90000000001;;;9.28;100
17950;BME280;9100;48.700;9.316;2023-04-01T01:28:14;96416.6;;;9.29;100
17950;BME280;9100;48.700;9.316;2023-04-01T01:29:11;96412.3;;;9.29;100
17950;BME280;9100;48.700;9.316;2023-04-01T01:29:44;96413.3;;;9.28;100
17950;BME280;9100;48.700;9.316;2023-04-01T01:30:12;96412.3;;;9.29;100
17950;BME280;9100;48.700;9.316;2023-04-01T01:31:09;96414.3;;;9.27;100
17950;BME280;9100;48.700;9.316;2023-04-01T01:32:10;96415;;;9.28;100
17950;BME280;9100;48.700;9.316;2023-04-01T01:33:11;96409;;;9.29;100
17950;BME280;9100;48.700;9.316;2023-04-01T01:34:11;96409.90000000001;;;9.28;100
17950;BME280;9100;48.700;9.316;2023-04-01T01:34:40;96406.8;;;9.25;100
17950;BME280;9100;48.700;9.316;2023-04-01T01:35:13;96414.3;;;9.27;100
17950;BME280;9100;48.700;9.316;2023-04-01T01:36:08;96412.7;;;9.26;100
17950;BME280;9100;48.700;9.316;2023-04-01T01:37:09;96415;;;9.28;100
17950;BME280;9100;48.700;9.316;2023-04-01T01:38:08;96410.7;;;9.28;100
17950;BME280;9100;48.700;9.316;2023-04-01T01:39:08;96415;;;9.28;100
17950;BME280;9100;48.700;9.316;2023-04-01T01:39:38;96409.40000000001;;;9.25;100
17950;BME280;9100;48.700;9.316;2023-04-01T01:40:09;96409.2;;;9.27;100
17950;BME280;9100;48.700;9.316;2023-04-01T01:41:08;96409.2;;;9.27;100
17950;BME280;9100;48.700;9.316;2023-04-01T01:42:09;96409.2;;;9.27;100
17950;BME280;9100;48.700;9.316;2023-04-01T01:43:09;96409.40000000001;;;9.25;100
17950;BME280;9100;48.700;9.316;2023-04-01T01:44:08;96411.1;;;9.25;100
17950;BME280;9100;48.700;9.316;2023-04-01T01:44:38;96404.5;;;9.24;100
17950;BME280;9100;48.700;9.316;2023-04-01T01:45:08;96417.2;;;9.24;100
17950;BME280;9100;48.700;9.316;2023-04-01T01:46:09;96413.09999999999;;;9.23;100
17950;BME280;9100;48.700;9.316;2023-04-01T01:47:08;96410.5;;;9.23;100
17950;BME280;9100;48.700;9.316;2023-04-01T01:48:08;96413.09999999999;;;9.23;100
17950;BME280;9100;48.700;9.316;2023-04-01T01:49:08;96411.5;;;9.22;100
17950;BME280;9100;48.700;9.316;2023-04-01T01:49:38;96414.09999999999;;;9.22;100
17950;BME280;9100;48.700;9.316;2023-04-01T01:50:08;96419;;;9.23;100
17950;BME280;9100;48.700;9.316;2023-04-01T01:51:08;96418.4;;;9.21;100
17950;BME280;9100;48.700;9.316;2023-04-01T01:52:08;96414.9;;;9.22;100
17950;BME280;9100;48.700;9.316;2023-04-01T01:53:09;96415.59999999999;;;9.23;100
17950;BME280;9100;48.700;9.316;2023-04-01T01:54:11;96404.5;;;9.24;100
17950;BME280;9100;48.700;9.316;2023-04-01T01:54:46;96408.8;;;9.23;100
17950;BME280;9100;48.700;9.316;2023-04-01T01:55:22;96405.7;;;9.21;100
17950;BME280;9100;48.700;9.316;2023-04-01T01:56:09;96410.5;;;9.23;100
17950;BME280;9100;48.700;9.316;2023-04-01T01:57:08;96404.7;;;9.22;100
17950;BME280;9100;48.700;9.316;2023-04-01T01:58:09;96400.3;;;9.23;100
17950;BME280;9100;48.700;9.316;2023-04-01T01:59:08;96406.8;;;9.19;100
17950;BME280;9100;48.700;9.316;2023-04-01T01:59:38;96395.1;;;9.18;100
17950;BME280;9100;48.700;9.316;2023-04-01T02:00:09;96410.40000000001;;;9.18;100
17950;BME280;9100;48.700;9.316;2023-04-01T02:01:09;96408;;;9.16;100
17950;BME280;9100;48.700;9.316;2023-04-01T02:02:08;96406.7;;;9.14;100
17950;BME280;9100;48.700;9.316;2023-04-01T02:03:08;96403.5;;;9.12;100
17950;BME280;9100;48.700;9.316;2023-04-01T02:04:08;96410.6;;;9.1;100
17950;BME280;9100;48.700;9.316;2023-04-01T02:04:38;96397.79999999999;;;9.1;100
17950;BME280;9100;48.700;9.316;2023-04-01T02:05:08;96399.40000000001;;;9.11;100
17950;BME280;9100;48.700;9.316;2023-04-01T02:06:09;96402.9;;;9.1;100
17950;BME280;9100;48.700;9.316;2023-04-01T02:07:08;96409.79999999999;;;9.09;100
17950;BME280;9100;48.700;9.316;2023-04-01T02:08:09;96416.7;;;9.09;100
17950;BME280;9100;48.700;9.316;2023-04-01T02:09:08;96410.79999999999;;;9.08;100
17950;BME280;9100;48.700;9.316;2023-04-01T02:09:38;96407.6;;;9.06;100
17950;BME280;9100;48.700;9.316;2023-04-01T02:10:08;96411;;;9.07;100
17950;BME280;9100;48.700;9.316;2023-04-01T02:11:09;96408.4;;;9.07;100
17950;BME280;9100;48.700;9.316;2023-04-01T02:12:08;96411.2;;;9.05;100
17950;BME280;9100;48.700;9.316;2023-04-01T02:13:09;96416.3;;;9.05;100
17950;BME280;9100;48.700;9.316;2023-04-01T02:14:09;96413.9;;;9.04;100
17950;BME280;9100;48.700;9.316;2023-04-01T02:14:39;96425.09999999999;;;9.03;100
17950;BME280;9100;48.700;9.316;2023-04-01T02:15:09;96418.2;;;9.03;100
17950;BME280;9100;48.700;9.316;2023-04-01T02:16:10;96418.2;;;9.03;100
17950;BME280;9100;48.700;9.316;2023-04-01T02:17:08;96422.90000000001;;;9.06;100
17950;BME280;9100;48.700;9.316;2023-04-01T02:18:08;96425.5;;;9.06;100
17950;BME280;9100;48.700;9.316;2023-04-01T02:19:08;96425.7;;;9.05;100
17950;BME280;9100;48.700;9.316;2023-04-01T02:19:39;96424.90000000001;;;9.04;100
17950;BME280;9100;48.700;9.316;2023-04-01T02:20:09;96431.6;;;9.05;100
17950;BME280;9100;48.700;9.316;2023-04-01T02:21:08;96431.6;;;9.05;100
17950;BME280;9100;48.700;9.316;2023-04-01T02:22:08;96424.1;;;9.04;100
17950;BME280;9100;48.700;9.316;2023-04-01T02:23:08;96424.1;;;9.04;100
17950;BME280;9100;48.700;9.316;2023-04-01T02:24:10;96421.6;;;9.04;100
17950;BME280;9100;48.700;9.316;2023-04-01T02:24:38;96342.8;;;8.5;100
17950;BME280;9100;48.700;9.316;2023-04-01T02:25:09;96419.8;;;9.04;100
17950;BME280;9100;48.700;9.316;2023-04-01T02:26:08;96414.9;;;9.03;100
17950;BME280;9100;48.700;9.316;2023-04-01T02:27:08;96424.5;;;9.01;100
17950;BME280;9100;48.700;9.316;2023-04-01T02:28:08;96418.6;;;9;100
17950;BME280;9100;48.700;9.316;2023-04-01T02:29:08;96426.3;;;9;100
17950;BME280;9100;48.700;9.316;2023-04-01T02:29:38;96434.7;;;9.01;100
17950;BME280;9100;48.700;9.316;2023-04-01T02:30:08;96428.8;;;9;100
17950;BME280;9100;48.700;9.316;2023-04-01T02:31:08;96429.6;;;9.01;100
17950;BME280;9100;48.700;9.316;2023-04-01T02:32:08;96431.2;;;9.02;100
17950;BME280;9100;48.700;9.316;2023-04-01T02:33:08;96434.7;;;9.01;100
17950;BME280;9100;48.700;9.316;2023-04-01T02:34:08;96430.6;;;9;100
17950;BME280;9100;48.700;9.316;2023-04-01T02:34:38;96431.6;;;8.99;100
17950;BME280;9100;48.700;9.316;2023-04-01T02:35:08;96430;;;8.98;100
17950;BME280;9100;48.700;9.316;2023-04-01T02:36:10;96431.6;;;8.99;100
17950;BME280;9100;48.700;9.316;2023-04-01T02:37:08;96436.5;;;9;100
17950;BME280;9100;48.700;9.316;2023-04-01T02:38:08;96437.2;;;9.01;100
17950;BME280;9100;48.700;9.316;2023-04-01T02:39:08;96444.9;;;9.01;100
17950;BME280;9100;48.700;9.316;2023-04-01T02:39:38;96437.5;;;8.99;100
17950;BME280;9100;48.700;9.316;2023-04-01T02:40:08;96440.59999999999;;;9.01;100
17950;BME280;9100;48.700;9.316;2023-04-01T02:41:08;96438.3;;;9;100
17950;BME280;9100;48.700;9.316;2023-04-01T02:42:08;96432.2;;;9.01;100
17950;BME280;9100;48.700;9.316;2023-04-01T02:43:08;96438;;;9.01;100
17950;BME280;9100;48.700;9.316;2023-04-01T02:44:08;96436.7;;;8.99;100
17950;BME280;9100;48.700;9.316;2023-04-01T02:44:38;96432.4;;;8.99;100
17950;BME280;9100;48.700;9.316;2023-04-01T02:45:08;96434.1;;;8.99;100
17950;BME280;9100;48.700;9.316;2023-04-01T02:46:08;96438.3;;;9;100
17950;BME280;9100;48.700;9.316;2023-04-01T02:47:08;96435.7;;;9;100
17950;BME280;9100;48.700;9.316;2023-04-01T02:48:08;96429.8;;;8.99;100
17950;BME280;9100;48.700;9.316;2023-04-01T02:49:08;96439.8;;;9.01;100
17950;BME280;9100;48.700;9.316;2023-04-01T02:49:38;96431.4;;;9;100
17950;BME280;9100;48.700;9.316;2023-04-01T02:50:08;96433.90000000001;;;9;100
17950;BME280;9100;48.700;9.316;2023-04-01T02:51:08;96429.8;;;8.99;100
17950;BME280;9100;48.700;9.316;2023-04-01T02:52:08;96433.2;;;9;100
17950;BME280;9100;48.700;9.316;2023-04-01T02:53:08;96443.4;;;9;100
17950;BME280;9100;48.700;9.316;2023-04-01T02:54:08;96433.3;;;8.98;100
17950;BME280;9100;48.700;9.316;2023-04-01T02:54:38;96432;;;8.96;100
17950;BME280;9100;48.700;9.316;2023-04-01T02:55:08;96438.7;;;8.97;100
17950;BME280;9100;48.700;9.316;2023-04-01T02:56:08;96432.8;;;8.96;100
17950;BME280;9100;48.700;9.316;2023-04-01T02:57:08;96431.2;;;8.95;100
17950;BME280;9100;48.700;9.316;2023-04-01T02:58:08;96425.3;;;8.95;100
17950;BME280;9100;48.700;9.316;2023-04-01T02:59:09;96428.8;;;8.94;100
17950;BME280;9100;48.700;9.316;2023-04-01T02:59:38;96432.4;;;8.93;100
17950;BME280;9100;48.700;9.316;2023-04-01T03:00:08;96430.8;;;8.92;100
17950;BME280;9100;48.700;9.316;2023-04-01T03:01:08;96424;;;8.92;100
17950;BME280;9100;48.700;9.316;2023-04-01T03:02:08;96420.6;;;8.92;100
17950;BME280;9100;48.700;9.316;2023-04-01T03:03:08;96430.4;;;8.88;100
17950;BME280;9100;48.700;9.316;2023-04-01T03:04:08;96416.3;;;8.86;100
17950;BME280;9100;48.700;9.316;2023-04-01T03:04:38;96424.90000000001;;;8.85;100
17950;BME280;9100;48.700;9.316;2023-04-01T03:05:08;96416.5;;;8.84;100
17950;BME280;9100;48.700;9.316;2023-04-01T03:06:08;96416.3;;;8.79;100
17950;BME280;9100;48.700;9.316;2023-04-01T03:07:08;96422.2;;;8.8;100
17950;BME280;9100;48.700;9.316;2023-04-01T03:08:08;96415.5;;;8.78;100
17950;BME280;9100;48.700;9.316;2023-04-01T03:09:08;96413.2;;;8.77;100
17950;BME280;9100;48.700;9.316;2023-04-01T03:09:38;96414.4;;;8.74;100
17950;BME280;9100;48.700;9.316;2023-04-01T03:10:08;96414.9;;;8.76;100
17950;BME280;9100;48.700;9.316;2023-04-01T03:11:08;96427.09999999999;;;8.74;100
17950;BME280;9100;48.700;9.316;2023-04-01T03:12:08;96420.6;;;8.72;100
17950;BME280;9100;48.700;9.316;2023-04-01T03:13:08;96414.70000000001;;;8.71;100
17950;BME280;9100;48.700;9.316;2023-04-01T03:14:08;96416.7;;;8.69;100
17950;BME280;9100;48.700;9.316;2023-04-01T03:14:38;96416.7;;;8.69;100
17950;BME280;9100;48.700;9.316;2023-04-01T03:15:09;96416.7;;;8.69;100
17950;BME280;9100;48.700;9.316;2023-04-01T03:16:08;96408.5;;;8.67;100
17950;BME280;9100;48.700;9.316;2023-04-01T03:17:08;96411.6;;;8.69;100
17950;BME280;9100;48.700;9.316;2023-04-01T03:18:08;96413.5;;;8.67;100
17950;BME280;9100;48.700;9.316;2023-04-01T03:19:08;96413.8;;;8.66;100
17950;BME280;9100;48.700;9.316;2023-04-01T03:19:38;96415.7;;;8.64;100
17950;BME280;9100;48.700;9.316;2023-04-01T03:20:09;96419;;;8.64;100
17950;BME280;9100;48.700;9.316;2023-04-01T03:21:12;96416.5;;;8.64;100
17950;BME280;9100;48.700;9.316;2023-04-01T03:22:08;96419;;;8.64;100
17950;BME280;9100;48.700;9.316;2023-04-01T03:23:08;96419.4;;;8.61;100
17950;BME280;9100;48.700;9.316;2023-04-01T03:24:08;96419.4;;;8.61;100
17950;BME280;9100;48.700;9.316;2023-04-01T03:24:38;96417.9;;;8.6;100
17950;BME280;9100;48.700;9.316;2023-04-01T03:25:08;96421.8;;;8.63;100
17950;BME280;9100;48.700;9.316;2023-04-01T03:26:08;96421.8;;;8.63;100
17950;BME280;9100;48.700;9.316;2023-04-01T03:27:08;96418.5;;;8.62;100
17950;BME280;9100;48.700;9.316;2023-04-01T03:28:08;96413.4;;;8.62;100
17950;BME280;9100;48.700;9.316;2023-04-01T03:29:08;96421;;;8.62;100
17950;BME280;9100;48.700;9.316;2023-04-01T03:29:38;96420.4;;;8.6;100
17950;BME280;9100;48.700;9.316;2023-04-01T03:30:08;96422;;;8.61;100
17950;BME280;9100;48.700;9.316;2023-04-01T03:31:08;96423;;;8.6;100
17950;BME280;9100;48.700;9.316;2023-04-01T03:32:08;96425.5;;;8.6;100
17950;BME280;9100;48.700;9.316;2023-04-01T03:33:08;96429.8;;;8.6;100
17950;BME280;9100;48.700;9.316;2023-04-01T03:34:08;96430;;;8.58;100
17950;BME280;9100;48.700;9.316;2023-04-01T03:34:38;96418.3;;;8.57;100
17950;BME280;9100;48.700;9.316;2023-04-01T03:35:08;96424.90000000001;;;8.58;100
17950;BME280;9100;48.700;9.316;2023-04-01T03:36:08;96424;;;8.59;100
17950;BME280;9100;48.700;9.316;2023-04-01T03:37:08;96431.6;;;8.59;100
17950;BME280;9100;48.700;9.316;2023-04-01T03:38:08;96432.2;;;8.61;100
17950;BME280;9100;48.700;9.316;2023-04-01T03:39:08;96431.2;;;8.62;100
17950;BME280;9100;48.700;9.316;2023-04-01T03:39:38;96433.4;;;8.59;100
17950;BME280;9100;48.700;9.316;2023-04-01T03:40:08;96434.90000000001;;;8.6;100
17950;BME280;9100;48.700;9.316;2023-04-01T03:41:11;96434.7;;;8.61;100
17950;BME280;9100;48.700;9.316;2023-04-01T03:42:08;96431.2;;;8.62;100
17950;BME280;9100;48.700;9.316;2023-04-01T03:43:08;96432;;;8.63;100
17950;BME280;9100;48.700;9.316;2023-04-01T03:44:08;96425.5;;;8.6;100
17950;BME280;9100;48.700;9.316;2023-04-01T03:44:38;96437.09999999999;;;8.63;100
17950;BME280;9100;48.700;9.316;2023-04-01T03:45:08;96432.8;;;8.63;100
17950;BME280;9100;48.700;9.316;2023-04-01T03:46:08;96429.2;;;8.64;100
17950;BME280;9100;48.700;9.316;2023-04-01T03:47:08;96432.8;;;8.63;100
17950;BME280;9100;48.700;9.316;2023-04-01T03:48:08;96432.8;;;8.63;100
17950;BME280;9100;48.700;9.316;2023-04-01T03:49:08;96426.09999999999;;;8.62;100
17950;BME280;9100;48.700;9.316;2023-04-01T03:49:38;96438.3;;;8.6;100
17950;BME280;9100;48.700;9.316;2023-04-01T03:50:08;96438.09999999999;;;8.62;100
17950;BME280;9100;48.700;9.316;2023-04-01T03:51:08;96433.90000000001;;;8.61;100
17950;BME280;9100;48.700;9.316;2023-04-01T03:52:09;96430.6;;;8.6;100
17950;BME280;9100;48.700;9.316;2023-04-01T03:53:08;96435.29999999999;;;8.57;100
17950;BME280;9100;48.700;9.316;2023-04-01T03:54:09;96435.5;;;8.55;100
17950;BME280;9100;48.700;9.316;2023-04-01T03:54:38;96435.5;;;8.55;100
17950;BME280;9100;48.700;9.316;2023-04-01T03:55:08;96433.8;;;8.56;100
17950;BME280;9100;48.700;9.316;2023-04-01T03:56:08;96422.79999999999;;;8.55;100
17950;BME280;9100;48.700;9.316;2023-04-01T03:57:08;96437.90000000001;;;8.63;100
17950;BME280;9100;48.700;9.316;2023-04-01T03:58:08;96437.7;;;8.71;100
17950;BME280;9100;48.700;9.316;2023-04-01T03:59:08;96429.7;;;8.74;100
17950;BME280;9100;48.700;9.316;2023-04-01T03:59:38;96435.90000000001;;;8.78;100
17950;BME280;9100;48.700;9.316;2023-04-01T04:00:08;96441;;;8.85;100
17950;BME280;9100;48.700;9.316;2023-04-01T04:01:16;96439.8;;;8.88;100
17950;BME280;9100;48.700;9.316;2023-04-01T04:02:08;96430.4;;;8.88;100
17950;BME280;9100;48.700;9.316;2023-04-01T04:03:08;96431.2;;;8.89;100
17950;BME280;9100;48.700;9.316;2023-04-01T04:04:10;96429.6;;;8.88;100
17950;BME280;9100;48.700;9.316;2023-04-01T04:04:38;96430.8;;;8.85;100
17950;BME280;9100;48.700;9.316;2023-04-01T04:05:08;96429.2;;;8.84;100
17950;BME280;9100;48.700;9.316;2023-04-01T04:06:10;96418.3;;;8.84;100
17950;BME280;9100;48.700;9.316;2023-04-01T04:07:08;96421.40000000001;;;8.79;100
17950;BME280;9100;48.700;9.316;2023-04-01T04:08:08;96423.90000000001;;;8.79;100
17950;BME280;9100;48.700;9.316;2023-04-01T04:09:08;96415.09999999999;;;8.75;100
17950;BME280;9100;48.700;9.316;2023-04-01T04:09:38;96422;;;8.74;100
17950;BME280;9100;48.700;9.316;2023-04-01T04:10:08;96409.6;;;8.71;100
17950;BME280;9100;48.700;9.316;2023-04-01T04:11:08;96417.5;;;8.7;100
17950;BME280;9100;48.700;9.316;2023-04-01T04:12:08;96415.9;;;8.69;100
17950;BME280;9100;48.700;9.316;2023-04-01T04:13:08;96411.40000000001;;;8.64;100
17950;BME280;9100;48.700;9.316;2023-04-01T04:14:08;96411.2;;;8.59;100
17950;BME280;9100;48.700;9.316;2023-04-01T04:14:38;96413.2;;;8.57;100
17950;BME280;9100;48.700;9.316;2023-04-01T04:15:08;96409.3;;;8.55;100
17950;BME280;9100;48.700;9.316;2023-04-01T04:16:08;96407.7;;;8.54;100
17950;BME280;9100;48.700;9.316;2023-04-01T04:17:09;96426.70000000001;;;8.51;100
17950;BME280;9100;48.700;9.316;2023-04-01T04:18:08;96417.5;;;8.5;100
17950;BME280;9100;48.700;9.316;2023-04-01T04:19:08;96419.6;;;8.47;100
17950;BME280;9100;48.700;9.316;2023-04-01T04:19:38;96415.5;;;8.46;100
17950;BME280;9100;48.700;9.316;2023-04-01T04:20:08;96420.6;;;8.46;100
17950;BME280;9100;48.700;9.316;2023-04-01T04:21:11;96419.8;;;8.45;100
17950;BME280;9100;48.700;9.316;2023-04-01T04:22:08;96416.09999999999;;;8.41;100
17950;BME280;9100;48.700;9.316;2023-04-01T04:23:08;96414.5;;;8.4;100
17950;BME280;9100;48.700;9.316;2023-04-01T04:24:08;96423.2;;;8.39;100
17950;BME280;9100;48.700;9.316;2023-04-01T04:24:38;96420.8;;;8.38;100
17950;BME280;9100;48.700;9.316;2023-04-01T04:25:08;96426.70000000001;;;8.38;100
17950;BME280;9100;48.700;9.316;2023-04-01T04:26:09;96416.7;;;8.37;100
17950;BME280;9100;48.700;9.316;2023-04-01T04:27:08;96426.09999999999;;;8.36;100
17950;BME280;9100;48.700;9.316;2023-04-01T04:28:08;96423.5;;;8.36;100
17950;BME280;9100;48.700;9.316;2023-04-01T04:29:08;96421.40000000001;;;8.33;100
17950;BME280;9100;48.700;9.316;2023-04-01T04:29:38;96413.8;;;8.33;100
17950;BME280;9100;48.700;9.316;2023-04-01T04:30:08;96417.8;;;8.34;100
17950;BME280;9100;48.700;9.316;2023-04-01T04:31:08;96422.90000000001;;;8.34;100
17950;BME280;9100;48.700;9.316;2023-04-01T04:32:08;96416.09999999999;;;8.35;100
17950;BME280;9100;48.700;9.316;2023-04-01T04:33:08;96416.3;;;8.33;100
17950;BME280;9100;48.700;9.316;2023-04-01T04:34:08;96417.8;;;8.34;100
17950;BME280;9100;48.700;9.316;2023-04-01T04:34:38;96411.2;;;8.33;100
17950;BME280;9100;48.700;9.316;2023-04-01T04:35:08;96413;;;8.33;100
17950;BME280;9100;48.700;9.316;2023-04-01T04:36:08;96415.3;;;8.34;100
17950;BME280;9100;48.700;9.316;2023-04-01T04:37:08;96411.2;;;8.33;100
17950;BME280;9100;48.700;9.316;2023-04-01T04:38:08;96413.09999999999;;;8.31;100
17950;BME280;9100;48.700;9.316;2023-04-01T04:39:08;96408.3;;;8.3;100